createdAt,value
2023-05-03T00:02:06.429Z,102296.13
2023-05-03T00:04:36.277Z,102312.31
2023-05-03T00:07:06.074Z,102320.13
2023-05-03T00:09:36.661Z,102323.91
2023-05-03T00:12:07.717Z,102320.91
2023-05-03T00:14:37.452Z,102292.84
2023-05-03T00:17:09.766Z,102323.44
2023-05-03T00:19:40.270Z,102315.41
2023-05-03T00:22:10.172Z,102311.50
2023-05-03T00:24:39.940Z,102315.03
2023-05-03T00:27:09.650Z,102305.97
2023-05-03T00:29:39.389Z,102323.81
2023-05-03T00:32:11.784Z,102307.06
2023-05-03T00:34:41.603Z,102323.28
2023-05-03T00:37:11.505Z,102311.38
2023-05-03T00:39:41.311Z,102317.66
2023-05-03T00:42:11.129Z,102280.88
2023-05-03T00:44:40.976Z,102314.50
2023-05-03T00:47:13.638Z,102292.94
2023-05-03T00:49:44.605Z,102313.91
2023-05-03T00:52:14.542Z,102302.66
2023-05-03T00:54:44.463Z,102318.53
2023-05-03T00:57:14.486Z,102310.66
2023-05-03T00:59:45.272Z,102309.50
2023-05-03T01:02:17.605Z,102318.06
2023-05-03T01:04:47.963Z,102310.19
2023-05-03T01:07:26.885Z,102314.31
2023-05-03T01:10:02.851Z,102321.72
2023-05-03T01:12:43.414Z,102311.19
2023-05-03T01:15:20.992Z,102308.47
2023-05-03T01:17:57.090Z,102301.25
2023-05-03T01:20:31.078Z,102310.56
2023-05-03T01:23:08.812Z,102320.38
2023-05-03T01:25:41.872Z,102317.50
2023-05-03T01:28:11.618Z,102303.44
2023-05-03T01:30:43.280Z,102318.84
2023-05-03T01:33:19.671Z,102318.06
2023-05-03T01:35:57.414Z,102325.47
2023-05-03T01:38:27.300Z,102332.00
2023-05-03T01:41:05.129Z,102327.22
2023-05-03T01:43:37.104Z,102316.09
2023-05-03T01:46:07.079Z,102314.94
2023-05-03T01:48:36.844Z,102335.72
2023-05-03T01:51:06.776Z,102332.78
2023-05-03T01:53:36.583Z,102333.56
2023-05-03T01:56:09.363Z,102342.75
2023-05-03T01:58:39.359Z,102335.91
2023-05-03T02:01:09.212Z,102328.19
2023-05-03T02:03:39.070Z,102326.44
2023-05-03T02:06:09.145Z,102299.69
2023-05-03T02:08:38.970Z,102338.31
2023-05-03T02:11:11.303Z,102343.59
2023-05-03T02:13:41.498Z,102336.38
2023-05-03T02:16:11.987Z,102343.91
2023-05-03T02:18:42.016Z,102339.22
2023-05-03T02:21:12.213Z,102352.34
2023-05-03T02:23:42.221Z,102344.94
2023-05-03T02:26:14.535Z,102338.03
2023-05-03T02:28:44.357Z,102332.44
2023-05-03T02:31:14.210Z,102353.34
2023-05-03T02:33:45.942Z,102354.69
2023-05-03T02:36:16.014Z,102364.91
2023-05-03T02:38:47.454Z,102355.19
2023-05-03T02:41:19.848Z,102344.63
2023-05-03T02:43:49.845Z,102327.75
2023-05-03T02:46:19.654Z,102366.44
2023-05-03T02:48:49.486Z,102370.44
2023-05-03T02:51:19.249Z,102363.97
2023-05-03T02:53:48.990Z,102362.47
2023-05-03T02:56:21.351Z,102371.38
2023-05-03T02:58:51.234Z,102373.38
2023-05-03T03:01:22.138Z,102366.47
2023-05-03T03:03:52.159Z,102307.50
2023-05-03T03:06:22.176Z,102369.22
2023-05-03T03:08:51.973Z,102367.75
2023-05-03T03:11:25.369Z,102372.94
2023-05-03T03:13:55.788Z,102373.28
2023-05-03T03:16:27.689Z,102363.41
2023-05-03T03:18:58.341Z,102341.97
2023-05-03T03:21:29.807Z,102369.53
2023-05-03T03:23:59.634Z,102372.91
2023-05-03T03:26:32.168Z,102368.47
2023-05-03T03:29:03.033Z,102375.06
2023-05-03T03:31:33.594Z,102355.75
2023-05-03T03:34:03.609Z,102369.56
2023-05-03T03:36:34.406Z,102352.19
2023-05-03T03:39:04.233Z,102350.88
2023-05-03T03:41:39.203Z,102355.03
2023-05-03T03:44:09.346Z,102345.84
2023-05-03T03:46:39.269Z,102363.09
2023-05-03T03:49:09.380Z,102342.31
2023-05-03T03:51:39.967Z,102352.66
2023-05-03T03:54:09.880Z,102341.84
2023-05-03T03:56:47.265Z,102361.31
2023-05-03T03:59:18.487Z,102357.59
2023-05-03T04:01:49.183Z,102345.09
2023-05-03T04:04:19.491Z,102350.03
2023-05-03T04:06:50.070Z,102339.72
2023-05-03T04:09:20.171Z,102345.84
2023-05-03T04:11:52.736Z,102364.19
2023-05-03T04:14:22.765Z,102363.34
2023-05-03T04:16:52.837Z,102359.47
2023-05-03T04:19:23.979Z,102346.91
2023-05-03T04:21:53.831Z,102309.38
2023-05-03T04:24:24.441Z,102323.97
2023-05-03T04:26:57.026Z,102359.66
2023-05-03T04:29:31.463Z,102364.72
2023-05-03T04:32:01.624Z,102337.00
2023-05-03T04:34:31.826Z,102354.28
2023-05-03T04:37:03.123Z,102344.69
2023-05-03T04:39:32.917Z,102361.59
2023-05-03T04:42:08.008Z,102371.47
2023-05-03T04:44:38.083Z,102368.34
2023-05-03T04:47:08.029Z,102360.28
2023-05-03T04:49:39.327Z,102365.41
2023-05-03T04:52:10.540Z,102357.53
2023-05-03T04:54:41.425Z,102370.38
2023-05-03T04:57:13.813Z,102375.56
2023-05-03T04:59:43.602Z,102378.16
2023-05-03T05:02:13.747Z,102355.28
2023-05-03T05:04:43.560Z,102372.38
2023-05-03T05:07:14.808Z,102387.50
2023-05-03T05:09:46.810Z,102351.81
2023-05-03T05:12:19.328Z,102370.94
2023-05-03T05:14:49.125Z,102389.44
2023-05-03T05:17:19.036Z,102344.59
2023-05-03T05:19:48.972Z,102373.16
2023-05-03T05:22:19.894Z,102359.22
2023-05-03T05:24:55.575Z,102395.00
2023-05-03T05:27:29.653Z,102376.34
2023-05-03T05:30:01.325Z,102388.00
2023-05-03T05:32:31.997Z,102383.69
2023-05-03T05:35:01.845Z,102388.28
2023-05-03T05:37:32.185Z,102363.56
2023-05-03T05:40:05.518Z,102391.88
2023-05-03T05:42:43.656Z,102383.84
2023-05-03T05:45:14.637Z,102374.63
2023-05-03T05:47:45.957Z,102389.81
2023-05-03T05:50:18.828Z,102377.34
2023-05-03T05:52:55.380Z,102390.88
2023-05-03T05:55:27.193Z,102395.44
2023-05-03T05:58:00.925Z,102406.16
2023-05-03T06:00:39.218Z,102377.47
2023-05-03T06:03:09.560Z,102408.31
2023-05-03T06:05:40.317Z,102411.97
2023-05-03T06:08:12.059Z,102418.25
2023-05-03T06:10:41.981Z,102407.53
2023-05-03T06:13:15.123Z,102394.41
2023-05-03T06:15:46.080Z,102393.53
2023-05-03T06:18:16.176Z,102423.81
2023-05-03T06:20:51.282Z,102419.94
2023-05-03T06:23:22.312Z,102417.28
2023-05-03T06:25:53.201Z,102403.63
2023-05-03T06:28:26.327Z,102422.00
2023-05-03T06:30:58.358Z,102424.44
2023-05-03T06:33:29.990Z,102429.50
2023-05-03T06:35:59.978Z,102434.00
2023-05-03T06:38:29.835Z,102380.44
2023-05-03T06:41:00.112Z,102435.22
2023-05-03T06:43:32.611Z,102438.91
2023-05-03T06:46:08.297Z,102421.56
2023-05-03T06:48:38.128Z,102434.16
2023-05-03T06:51:08.024Z,102432.19
2023-05-03T06:53:38.629Z,102386.50
2023-05-03T06:56:09.032Z,102424.31
2023-05-03T06:58:41.360Z,102436.44
2023-05-03T07:01:11.134Z,102431.72
2023-05-03T07:03:41.833Z,102401.88
2023-05-03T07:06:12.010Z,102416.78
2023-05-03T07:08:41.798Z,102425.63
2023-05-03T07:11:11.854Z,102421.91
2023-05-03T07:13:44.208Z,102428.81
2023-05-03T07:16:13.984Z,102427.00
2023-05-03T07:18:43.729Z,102418.78
2023-05-03T07:21:13.517Z,102422.44
2023-05-03T07:23:43.404Z,102421.63
2023-05-03T07:26:13.418Z,102429.25
2023-05-03T07:28:45.804Z,102421.09
2023-05-03T07:31:15.833Z,102421.84
2023-05-03T07:33:45.827Z,102413.41
2023-05-03T07:36:15.683Z,102426.94
2023-05-03T07:38:45.441Z,102415.72
2023-05-03T07:41:15.394Z,102406.44
2023-05-03T07:43:47.720Z,102351.13
2023-05-03T07:46:17.556Z,102407.88
2023-05-03T07:48:47.310Z,102389.44
2023-05-03T07:51:17.109Z,102393.31
2023-05-03T07:53:46.882Z,102399.63
2023-05-03T07:56:16.637Z,102403.66
2023-05-03T07:58:56.982Z,102402.78
2023-05-03T08:01:34.811Z,102392.88
2023-05-03T08:04:04.981Z,102387.53
2023-05-03T08:06:35.978Z,102396.63
2023-05-03T08:09:06.318Z,102411.31
2023-05-03T08:11:36.140Z,102416.91
2023-05-03T08:14:08.480Z,102404.72
2023-05-03T08:16:38.282Z,102407.09
2023-05-03T08:19:08.215Z,102408.50
2023-05-03T08:21:43.299Z,102395.78
2023-05-03T08:24:16.054Z,102383.44
2023-05-03T08:26:46.764Z,102408.09
2023-05-03T08:29:19.471Z,102405.13
2023-05-03T08:31:49.398Z,102411.13
2023-05-03T08:34:19.300Z,102409.97
2023-05-03T08:36:49.039Z,102407.72
2023-05-03T08:39:19.229Z,102395.41
2023-05-03T08:41:50.313Z,102400.84
2023-05-03T08:44:24.476Z,102400.31
2023-05-03T08:46:54.603Z,102392.09
2023-05-03T08:49:24.377Z,102407.66
2023-05-03T08:51:54.792Z,102392.84
2023-05-03T08:54:24.749Z,102401.38
2023-05-03T08:56:54.679Z,102394.84
2023-05-03T08:59:28.799Z,102373.22
2023-05-03T09:01:58.616Z,102364.50
2023-05-03T09:04:36.577Z,102387.72
2023-05-03T09:07:13.130Z,102387.97
2023-05-03T09:09:45.602Z,102384.09
2023-05-03T09:12:36.942Z,102368.19
2023-05-03T09:15:10.401Z,102379.78
2023-05-03T09:17:40.195Z,102383.81
2023-05-03T09:20:11.934Z,102391.69
2023-05-03T09:22:54.273Z,102392.75
2023-05-03T09:25:24.081Z,102402.84
2023-05-03T09:28:04.048Z,102378.38
2023-05-03T09:30:37.020Z,102402.81
2023-05-03T09:33:08.220Z,102391.63
2023-05-03T09:35:38.125Z,102342.44
2023-05-03T09:38:07.967Z,102364.03
2023-05-03T09:40:48.531Z,102377.00
2023-05-03T09:43:19.464Z,102385.88
2023-05-03T09:45:52.299Z,102391.47
2023-05-03T09:48:24.486Z,102392.50
2023-05-03T09:50:54.622Z,102388.28
2023-05-03T09:53:25.435Z,102381.28
2023-05-03T09:55:56.471Z,102384.38
2023-05-03T09:58:29.002Z,102369.53
2023-05-03T10:01:01.614Z,102373.81
2023-05-03T10:03:37.435Z,102384.75
2023-05-03T10:06:25.729Z,102349.19
2023-05-03T10:09:00.359Z,102376.88
2023-05-03T10:11:30.944Z,102379.75
2023-05-03T10:14:01.383Z,102379.34
2023-05-03T10:16:36.768Z,102372.25
2023-05-03T10:19:14.150Z,102361.63
2023-05-03T10:21:58.907Z,102368.81
2023-05-03T10:24:28.704Z,102356.22
2023-05-03T10:26:59.479Z,102348.44
2023-05-03T10:29:49.454Z,102347.50
2023-05-03T10:32:40.894Z,102344.66
2023-05-03T10:35:12.755Z,102323.88
2023-05-03T10:37:45.585Z,102343.84
2023-05-03T10:40:17.765Z,102347.69
2023-05-03T10:42:48.766Z,102320.22
2023-05-03T10:45:25.367Z,102336.47
2023-05-03T10:48:24.716Z,102348.22
2023-05-03T10:50:55.231Z,102333.47
2023-05-03T10:53:41.293Z,102340.22
2023-05-03T10:56:12.924Z,102334.94
2023-05-03T10:58:46.494Z,102342.66
2023-05-03T11:01:18.305Z,102350.72
2023-05-03T11:03:55.297Z,102341.84
2023-05-03T11:06:34.585Z,102344.47
2023-05-03T11:09:06.954Z,102328.09
2023-05-03T11:11:39.899Z,102334.47
2023-05-03T11:14:10.333Z,102325.03
2023-05-03T11:16:48.038Z,102327.59
2023-05-03T11:19:20.855Z,102323.94
2023-05-03T11:21:50.665Z,102317.94
2023-05-03T11:24:21.466Z,102312.72
2023-05-03T11:26:54.194Z,102303.38
2023-05-03T11:29:24.856Z,102314.44
2023-05-03T11:31:56.051Z,102301.91
2023-05-03T11:34:29.600Z,102302.59
2023-05-03T11:37:02.000Z,102316.28
2023-05-03T11:39:35.573Z,102290.72
2023-05-03T11:42:08.919Z,102299.25
2023-05-03T11:44:39.708Z,102290.34
2023-05-03T11:47:10.843Z,102272.47
2023-05-03T11:49:54.261Z,102295.91
2023-05-03T11:52:26.067Z,102266.06
2023-05-03T11:54:57.856Z,102285.88
2023-05-03T11:57:29.009Z,102292.28
2023-05-03T12:00:13.531Z,102282.38
2023-05-03T12:02:44.838Z,102288.47
2023-05-03T12:05:19.381Z,102278.09
2023-05-03T12:07:54.010Z,102272.91
2023-05-03T12:10:27.127Z,102270.72
2023-05-03T12:13:00.626Z,102287.63
2023-05-03T12:15:33.792Z,102280.81
2023-05-03T12:18:06.010Z,102271.81
2023-05-03T12:23:15.275Z,102280.25
2023-05-03T12:25:49.187Z,102268.50
2023-05-03T12:28:21.265Z,102248.31
2023-05-03T12:30:53.501Z,102268.03
2023-05-03T12:33:23.857Z,102271.59
2023-05-03T12:35:59.117Z,102261.50
2023-05-03T12:38:30.858Z,102263.50
2023-05-03T12:41:01.104Z,102269.75
2023-05-03T12:43:31.045Z,102236.50
2023-05-03T12:46:30.441Z,102259.00
2023-05-03T12:48:54.210Z,102253.03
2023-05-03T12:51:31.321Z,102232.69
2023-05-03T12:54:03.975Z,102238.75
2023-05-03T12:56:36.034Z,102220.00
2023-05-03T13:06:57.608Z,102227.44
2023-05-03T13:09:38.832Z,102240.06
2023-05-03T13:12:20.662Z,102228.69
2023-05-03T13:14:50.970Z,102221.66
2023-05-03T13:17:23.194Z,102216.88
2023-05-03T13:19:54.092Z,102218.41
2023-05-03T13:22:27.155Z,102213.34
2023-05-03T13:24:56.992Z,102190.66
2023-05-03T13:27:26.985Z,102216.03
2023-05-03T13:29:56.749Z,102216.19
2023-05-03T13:32:26.539Z,102194.06
2023-05-03T13:34:56.359Z,102154.44
2023-05-03T13:37:28.968Z,102202.41
2023-05-03T13:39:58.775Z,102197.41
2023-05-03T13:42:28.723Z,102197.00
2023-05-03T13:44:58.853Z,102189.41
2023-05-03T13:47:33.176Z,102191.84
2023-05-03T13:50:18.988Z,102194.22
2023-05-03T13:52:51.385Z,102189.19
2023-05-03T13:55:22.111Z,102172.19
2023-05-03T13:57:51.945Z,102174.13
2023-05-03T14:00:23.237Z,102175.47
2023-05-03T14:02:53.787Z,102176.69
2023-05-03T14:05:23.560Z,102155.84
2023-05-03T14:07:55.975Z,102174.97
2023-05-03T14:10:25.822Z,102150.66
2023-05-03T14:12:58.076Z,102164.75
2023-05-03T14:15:28.023Z,102137.50
2023-05-03T14:18:01.297Z,102149.09
2023-05-03T14:20:33.560Z,102152.75
2023-05-03T14:23:06.601Z,102152.88
2023-05-03T14:25:36.564Z,102150.06
2023-05-03T14:28:06.757Z,102138.16
2023-05-03T14:30:36.606Z,102139.88
2023-05-03T14:33:06.687Z,102134.59
2023-05-03T14:35:36.972Z,102126.44
2023-05-03T14:38:09.398Z,102135.78
2023-05-03T14:40:39.201Z,102128.91
2023-05-03T14:43:09.419Z,102126.56
2023-05-03T14:45:39.265Z,102116.28
2023-05-03T14:48:09.671Z,102121.91
2023-05-03T14:50:39.819Z,102122.25
2023-05-03T14:53:12.214Z,102112.81
2023-05-03T14:55:42.179Z,102112.72
2023-05-03T14:58:13.139Z,102123.28
2023-05-03T15:00:43.623Z,102112.13
2023-05-03T15:03:14.394Z,102116.53
2023-05-03T15:05:48.546Z,102110.50
2023-05-03T15:08:22.813Z,102066.13
2023-05-03T15:10:52.676Z,102097.06
2023-05-03T15:13:22.741Z,102090.25
2023-05-03T15:15:52.661Z,102081.19
2023-05-03T15:18:23.453Z,102095.03
2023-05-03T15:20:53.381Z,102087.38
2023-05-03T15:23:25.904Z,102087.97
2023-05-03T15:25:55.643Z,102093.19
2023-05-03T15:28:25.383Z,102089.91
2023-05-03T15:30:55.181Z,102091.84
2023-05-03T15:33:24.987Z,102083.00
2023-05-03T15:35:55.567Z,102080.44
2023-05-03T15:38:28.214Z,102014.47
2023-05-03T15:40:57.974Z,102059.00
2023-05-03T15:43:27.707Z,102058.16
2023-05-03T15:45:57.926Z,102078.06
2023-05-03T15:48:27.787Z,102059.69
2023-05-03T15:50:57.770Z,102071.81
2023-05-03T15:53:30.186Z,102067.53
2023-05-03T15:56:00.265Z,102067.41
2023-05-03T15:58:30.671Z,102070.94
2023-05-03T16:01:00.586Z,102051.75
2023-05-03T16:03:30.332Z,102061.38
2023-05-03T16:06:00.300Z,102075.25
2023-05-03T16:08:32.794Z,102078.13
2023-05-03T16:11:02.603Z,102063.38
2023-05-03T16:13:32.624Z,102071.34
2023-05-03T16:16:03.346Z,102035.81
2023-05-03T16:18:33.170Z,102055.50
2023-05-03T16:21:03.586Z,102068.69
2023-05-03T16:23:35.972Z,102072.31
2023-05-03T16:26:14.481Z,102068.16
2023-05-03T16:28:44.244Z,102073.91
2023-05-03T16:31:15.686Z,102047.72
2023-05-03T16:33:45.917Z,102069.16
2023-05-03T16:36:15.709Z,102047.94
2023-05-03T16:38:48.105Z,102051.44
2023-05-03T16:41:17.972Z,102050.81
2023-05-03T16:43:47.759Z,102043.56
2023-05-03T16:46:17.683Z,102036.50
2023-05-03T16:48:47.461Z,102032.28
2023-05-03T16:51:17.680Z,102059.28
2023-05-03T16:53:50.598Z,102051.78
2023-05-03T16:56:20.453Z,101978.66
2023-05-03T16:58:50.235Z,102037.69
2023-05-03T17:01:20.276Z,102043.66
2023-05-03T17:03:50.170Z,102003.72
2023-05-03T17:06:20.332Z,102030.72
2023-05-03T17:08:52.682Z,102044.66
2023-05-03T17:11:22.530Z,102041.19
2023-05-03T17:13:52.427Z,102032.63
2023-05-03T17:16:22.835Z,102019.47
2023-05-03T17:18:52.987Z,102044.38
2023-05-03T17:21:24.381Z,102044.13
2023-05-03T17:23:56.749Z,102039.91
2023-05-03T17:26:26.674Z,101999.91
2023-05-03T17:28:56.446Z,102011.16
2023-05-03T17:31:26.443Z,102024.31
2023-05-03T17:33:56.232Z,102034.84
2023-05-03T17:36:26.006Z,102008.03
2023-05-03T17:38:58.432Z,102032.31
2023-05-03T17:41:28.208Z,102027.03
2023-05-03T17:43:58.073Z,102022.75
2023-05-03T17:46:28.287Z,102029.56
2023-05-03T17:48:58.662Z,102014.59
2023-05-03T17:51:28.431Z,101995.63
2023-05-03T17:54:00.791Z,102017.16
2023-05-03T17:56:30.539Z,101995.22
2023-05-03T17:59:00.759Z,101980.34
2023-05-03T18:01:30.575Z,102027.16
2023-05-03T18:04:00.498Z,102011.44
2023-05-03T18:06:30.332Z,102021.97
2023-05-03T18:09:02.689Z,102020.28
2023-05-03T18:11:32.510Z,102025.31
2023-05-03T18:14:02.697Z,102024.28
2023-05-03T18:16:32.571Z,102011.03
2023-05-03T18:19:02.477Z,102021.50
2023-05-03T18:21:32.903Z,102027.47
2023-05-03T18:24:05.805Z,102042.13
2023-05-03T18:26:35.826Z,102037.72
2023-05-03T18:29:05.625Z,102009.84
2023-05-03T18:31:35.419Z,102015.91
2023-05-03T18:34:05.228Z,102014.13
2023-05-03T18:36:35.038Z,102027.94
2023-05-03T18:39:08.935Z,101999.06
2023-05-03T18:41:38.938Z,102036.94
2023-05-03T18:44:08.943Z,102036.78
2023-05-03T18:46:39.138Z,102033.16
2023-05-03T18:49:10.073Z,102038.25
2023-05-03T18:51:39.969Z,102029.38
2023-05-03T18:54:12.421Z,102033.81
2023-05-03T18:56:42.272Z,102004.78
2023-05-03T18:59:12.217Z,102030.78
2023-05-03T19:01:42.078Z,102027.06
2023-05-03T19:04:13.959Z,102031.31
2023-05-03T19:06:43.747Z,102046.63
2023-05-03T19:09:16.502Z,102041.25
2023-05-03T19:11:47.398Z,102015.84
2023-05-03T19:14:17.219Z,102046.88
2023-05-03T19:16:47.084Z,102045.19
2023-05-03T19:19:16.879Z,102045.88
2023-05-03T19:21:46.806Z,102019.03
2023-05-03T19:24:19.160Z,102030.31
2023-05-03T19:26:48.922Z,102042.34
2023-05-03T19:29:18.709Z,102020.59
2023-05-03T19:31:48.903Z,102043.06
2023-05-03T19:34:18.795Z,102045.59
2023-05-03T19:36:48.785Z,102022.69
2023-05-03T19:39:21.280Z,102019.88
2023-05-03T19:41:54.237Z,102043.03
2023-05-03T19:44:23.972Z,102045.13
2023-05-03T19:46:55.595Z,102054.31
2023-05-03T19:49:25.905Z,102046.41
2023-05-03T19:51:56.224Z,102057.75
2023-05-03T19:54:28.589Z,102055.22
2023-05-03T19:56:58.330Z,102032.00
2023-05-03T19:59:29.468Z,102054.34
2023-05-03T20:01:59.352Z,102050.03
2023-05-03T20:04:29.261Z,102050.53
2023-05-03T20:06:59.741Z,102048.69
2023-05-03T20:09:32.136Z,102044.75
2023-05-03T20:12:02.476Z,102037.22
2023-05-03T20:14:32.548Z,102035.84
2023-05-03T20:17:02.297Z,102058.88
2023-05-03T20:19:32.248Z,102052.94
2023-05-03T20:22:02.044Z,102052.56
2023-05-03T20:24:34.406Z,102051.41
2023-05-03T20:27:04.162Z,102029.78
2023-05-03T20:29:34.447Z,102055.91
2023-05-03T20:32:04.242Z,102062.53
2023-05-03T20:34:34.309Z,102065.84
2023-05-03T20:37:04.118Z,102055.56
2023-05-03T20:39:36.674Z,102064.88
2023-05-03T20:42:06.610Z,102060.59
2023-05-03T20:44:36.408Z,102042.97
2023-05-03T20:47:06.209Z,102054.41
2023-05-03T20:49:37.200Z,102056.13
2023-05-03T20:52:07.782Z,102054.59
2023-05-03T20:54:44.458Z,102064.19
2023-05-03T20:57:16.928Z,102049.22
2023-05-03T20:59:47.120Z,102059.56
2023-05-03T21:02:17.018Z,102059.31
2023-05-03T21:04:46.865Z,102061.97
2023-05-03T21:07:16.699Z,101998.00
2023-05-03T21:09:49.074Z,102058.72
2023-05-03T21:12:18.893Z,101984.91
2023-05-03T21:14:48.751Z,102041.34
2023-05-03T21:17:18.861Z,102061.38
2023-05-03T21:19:48.769Z,102052.78
2023-05-03T21:22:18.652Z,102056.22
2023-05-03T21:24:51.278Z,102064.50
2023-05-03T21:27:22.221Z,102059.31
2023-05-03T21:29:51.999Z,102054.47
2023-05-03T21:32:21.747Z,102049.28
2023-05-03T21:34:52.429Z,102062.31
2023-05-03T21:37:22.249Z,102051.31
2023-05-03T21:40:05.508Z,102006.16
2023-05-03T21:42:35.381Z,102043.38
2023-05-03T21:45:05.343Z,102050.97
2023-05-03T21:47:35.209Z,102032.84
2023-05-03T21:50:06.153Z,102041.94
2023-05-03T21:52:36.469Z,102028.91
2023-05-03T21:55:10.018Z,102038.28
2023-05-03T21:57:39.788Z,102017.53
2023-05-03T22:00:14.846Z,102018.53
2023-05-03T22:02:44.715Z,102022.63
2023-05-03T22:05:14.792Z,101962.16
2023-05-03T22:07:44.673Z,102021.78
2023-05-03T22:10:17.404Z,102025.16
2023-05-03T22:12:47.308Z,101954.16
2023-05-03T22:15:17.105Z,102024.44
2023-05-03T22:17:46.877Z,101998.03
2023-05-03T22:20:16.689Z,102023.75
2023-05-03T22:22:46.437Z,101997.25
2023-05-03T22:25:28.965Z,102032.75
2023-05-03T22:27:59.853Z,102030.66
2023-05-03T22:30:29.672Z,102022.13
2023-05-03T22:32:59.519Z,102027.50
2023-05-03T22:35:29.359Z,102021.19
2023-05-03T22:37:59.944Z,102021.09
2023-05-03T22:40:32.594Z,102005.97
2023-05-03T22:43:02.412Z,102017.38
2023-05-03T22:45:32.195Z,102020.81
2023-05-03T22:48:02.006Z,101984.72
2023-05-03T22:50:31.869Z,102021.38
2023-05-03T22:53:01.623Z,102019.19
2023-05-03T22:55:34.015Z,101971.25
2023-05-03T22:58:03.840Z,102009.81
2023-05-03T23:00:33.662Z,102021.91
2023-05-03T23:03:03.516Z,102006.56
2023-05-03T23:05:33.379Z,102007.66
2023-05-03T23:08:03.105Z,102002.75
2023-05-03T23:10:35.544Z,102000.06
2023-05-03T23:13:05.475Z,101990.38
2023-05-03T23:15:35.611Z,101996.66
2023-05-03T23:18:05.623Z,102014.25
2023-05-03T23:20:35.572Z,102010.22
2023-05-03T23:23:05.347Z,102004.44
2023-05-03T23:25:37.779Z,101973.16
2023-05-03T23:28:08.023Z,102005.63
2023-05-03T23:30:38.318Z,101999.44
2023-05-03T23:33:08.615Z,102005.00
2023-05-03T23:35:38.978Z,102006.19
2023-05-03T23:38:08.972Z,101987.53
2023-05-03T23:40:41.782Z,101980.84
2023-05-03T23:43:11.591Z,101997.16
2023-05-03T23:45:41.433Z,101973.50
2023-05-03T23:48:11.215Z,101987.88
2023-05-03T23:50:41.025Z,101962.00
2023-05-03T23:53:11.133Z,101981.47
2023-05-03T23:55:43.502Z,101980.09
2023-05-03T23:58:13.212Z,101967.09
